createdAt,value
2022-09-17T00:01:01.587Z,82.10
2022-09-17T00:03:36.371Z,82.20
2022-09-17T00:06:09.238Z,82.30
2022-09-17T00:08:41.757Z,82.30
2022-09-17T00:11:16.987Z,82.80
2022-09-17T00:13:50.959Z,82.70
2022-09-17T00:16:41.043Z,82.90
2022-09-17T00:19:24.031Z,83.70
2022-09-17T00:21:58.140Z,83.00
2022-09-17T00:24:31.120Z,83.20
2022-09-17T00:27:00.770Z,83.50
2022-09-17T00:32:16.893Z,84.10
2022-09-17T00:34:50.810Z,84.00
2022-09-17T00:37:19.953Z,84.10
2022-09-17T00:39:52.593Z,84.30
2022-09-17T00:42:27.376Z,84.50
2022-09-17T00:44:58.215Z,85.00
2022-09-17T00:47:50.852Z,84.50
2022-09-17T00:50:42.341Z,85.30
2022-09-17T00:53:23.181Z,85.60
2022-09-17T00:56:09.925Z,85.80
2022-09-17T00:58:41.468Z,85.20
2022-09-17T01:01:11.544Z,85.10
2022-09-17T01:03:42.023Z,85.40
2022-09-17T01:06:44.737Z,85.30
2022-09-17T01:09:46.162Z,86.00
2022-09-17T01:12:28.952Z,86.80
2022-09-17T01:15:34.946Z,86.60
2022-09-17T01:18:57.259Z,86.50
2022-09-17T01:22:00.838Z,86.40
2022-09-17T01:25:03.927Z,86.30
2022-09-17T01:28:02.180Z,87.40
2022-09-17T01:31:17.908Z,86.90
2022-09-17T01:34:05.694Z,88.30
2022-09-17T01:36:49.302Z,87.60
2022-09-17T01:39:42.048Z,88.30
2022-09-17T01:42:25.823Z,88.50
2022-09-17T01:45:23.908Z,88.60
2022-09-17T01:48:02.589Z,89.00
2022-09-17T01:50:48.120Z,89.20
2022-09-17T01:53:20.930Z,89.50
2022-09-17T01:55:56.917Z,90.00
2022-09-17T01:58:31.791Z,90.10
2022-09-17T02:01:08.832Z,90.20
2022-09-17T02:03:40.236Z,90.40
2022-09-17T02:06:24.320Z,90.40
2022-09-17T02:09:02.098Z,90.50
2022-09-17T02:11:31.335Z,90.70
2022-09-17T02:14:21.956Z,90.80
2022-09-17T02:16:57.983Z,90.90
2022-09-17T02:19:34.818Z,91.10
2022-09-17T02:22:23.961Z,91.10
2022-09-17T02:25:25.350Z,91.40
2022-09-17T02:28:28.855Z,91.50
2022-09-17T02:30:59.660Z,91.60
2022-09-17T02:33:36.408Z,91.80
2022-09-17T02:36:06.614Z,91.80
2022-09-17T02:38:42.506Z,91.90
2022-09-17T02:41:19.935Z,92.00
2022-09-17T02:44:19.193Z,92.10
2022-09-17T02:46:52.280Z,92.20
2022-09-17T02:50:22.282Z,92.30
2022-09-17T02:53:28.056Z,92.80
2022-09-17T02:56:49.528Z,92.60
2022-09-17T02:59:40.391Z,92.90
2022-09-17T03:02:26.566Z,92.60
2022-09-17T03:05:00.857Z,92.90
2022-09-17T03:08:19.293Z,92.90
2022-09-17T03:10:53.702Z,93.00
2022-09-17T03:13:44.959Z,93.30
2022-09-17T03:16:21.195Z,93.20
2022-09-17T03:19:05.762Z,93.30
2022-09-17T03:21:33.512Z,93.50
2022-09-17T03:24:01.626Z,93.60
2022-09-17T03:26:29.793Z,93.60
2022-09-17T03:29:11.843Z,93.70
2022-09-17T03:31:45.829Z,93.80
2022-09-17T03:34:18.314Z,93.80
2022-09-17T03:36:58.157Z,94.00
2022-09-17T03:39:33.273Z,94.00
2022-09-17T03:42:09.180Z,94.20
2022-09-17T03:44:41.356Z,94.30
2022-09-17T03:47:19.878Z,94.40
2022-09-17T03:49:47.879Z,94.50
2022-09-17T03:52:17.112Z,94.90
2022-09-17T03:54:45.618Z,94.70
2022-09-17T03:57:15.894Z,94.80
2022-09-17T03:59:51.616Z,94.80
2022-09-17T04:02:26.360Z,95.10
2022-09-17T04:05:03.965Z,95.00
2022-09-17T04:07:32.934Z,95.20
2022-09-17T04:10:05.505Z,95.40
2022-09-17T04:12:40.496Z,95.40
2022-09-17T04:15:14.752Z,95.30
2022-09-17T04:17:48.266Z,95.30
2022-09-17T04:20:16.338Z,95.50
2022-09-17T04:22:45.715Z,95.60
2022-09-17T04:25:16.465Z,95.90
2022-09-17T04:27:48.093Z,96.00
2022-09-17T04:30:22.746Z,95.90
2022-09-17T04:32:54.013Z,95.90
2022-09-17T04:35:21.947Z,96.10
2022-09-17T04:38:02.313Z,96.10
2022-09-17T04:40:44.285Z,96.30
2022-09-17T04:43:17.486Z,96.30
2022-09-17T04:45:50.719Z,96.40
2022-09-17T04:48:20.621Z,96.40
2022-09-17T04:50:53.960Z,96.50
2022-09-17T04:53:27.441Z,96.60
2022-09-17T04:55:55.508Z,96.60
2022-09-17T04:58:23.859Z,96.80
2022-09-17T05:00:57.791Z,96.80
2022-09-17T05:03:39.400Z,96.90
2022-09-17T05:06:11.185Z,96.90
2022-09-17T05:08:43.409Z,97.00
2022-09-17T05:11:11.415Z,97.00
2022-09-17T05:13:43.795Z,97.20
2022-09-17T05:16:12.984Z,97.30
2022-09-17T05:18:40.923Z,97.50
2022-09-17T05:21:14.807Z,97.70
2022-09-17T05:23:47.345Z,97.50
2022-09-17T05:26:23.186Z,97.40
2022-09-17T05:29:21.837Z,97.60
2022-09-17T05:31:54.447Z,97.50
2022-09-17T05:34:24.878Z,97.90
2022-09-17T05:36:55.819Z,97.80
2022-09-17T05:39:36.048Z,98.10
2022-09-17T05:42:07.834Z,98.00
2022-09-17T05:44:40.388Z,97.90
2022-09-17T05:47:08.325Z,98.00
2022-09-17T05:49:50.828Z,98.20
2022-09-17T05:52:32.580Z,98.30
2022-09-17T05:55:03.308Z,98.30
2022-09-17T05:57:39.324Z,98.40
2022-09-17T06:00:12.626Z,98.40
2022-09-17T06:02:42.702Z,98.40
2022-09-17T06:05:18.305Z,98.40
2022-09-17T06:07:52.430Z,98.50
2022-09-17T06:10:29.875Z,98.60
2022-09-17T06:13:03.748Z,98.60
2022-09-17T06:15:42.850Z,98.70
2022-09-17T06:18:10.658Z,99.10
2022-09-17T06:20:42.850Z,98.90
2022-09-17T06:23:15.994Z,98.80
2022-09-17T06:25:56.966Z,98.90
2022-09-17T06:28:27.622Z,98.90
2022-09-17T06:31:15.772Z,99.00
2022-09-17T06:33:43.822Z,98.90
2022-09-17T06:36:15.787Z,99.10
2022-09-17T06:38:44.006Z,99.20
2022-09-17T06:41:12.637Z,99.20
2022-09-17T06:43:56.203Z,99.20
2022-09-17T06:46:28.270Z,99.00
2022-09-17T06:49:07.852Z,99.10
2022-09-17T06:51:46.288Z,99.40
2022-09-17T06:54:21.893Z,99.80
2022-09-17T06:56:53.252Z,99.90
2022-09-17T06:59:24.982Z,99.90
2022-09-17T07:01:53.926Z,99.90
2022-09-17T07:04:21.807Z,99.90
2022-09-17T07:06:49.520Z,99.90
2022-09-17T07:09:45.361Z,99.90
2022-09-17T07:12:16.334Z,99.90
2022-09-17T07:14:48.083Z,99.50
2022-09-17T07:17:21.685Z,99.00
2022-09-17T07:20:17.094Z,98.60
2022-09-17T07:22:45.124Z,98.10
2022-09-17T07:25:16.752Z,97.40
2022-09-17T07:27:48.867Z,97.10
2022-09-17T07:30:17.244Z,96.70
2022-09-17T07:32:45.159Z,96.10
2022-09-17T07:35:18.955Z,95.40
2022-09-17T07:37:56.502Z,95.00
2022-09-17T07:40:32.488Z,94.50
2022-09-17T07:43:16.468Z,94.30
2022-09-17T07:45:44.234Z,93.90
2022-09-17T07:48:14.207Z,93.30
2022-09-17T07:50:41.934Z,92.80
2022-09-17T07:53:10.341Z,92.40
2022-09-17T07:55:43.816Z,92.00
2022-09-17T07:58:14.180Z,91.60
2022-09-17T08:00:54.161Z,91.10
2022-09-17T08:03:24.604Z,90.10
2022-09-17T08:05:52.834Z,90.40
2022-09-17T08:08:25.526Z,90.20
2022-09-17T08:11:06.209Z,90.10
2022-09-17T08:13:41.513Z,86.10
2022-09-17T08:16:15.623Z,88.50
2022-09-17T08:18:55.631Z,87.20
2022-09-17T08:21:27.564Z,86.30
2022-09-17T08:24:02.754Z,81.90
2022-09-17T08:26:44.811Z,86.00
2022-09-17T08:29:14.260Z,83.50
2022-09-17T08:31:42.896Z,84.30
2022-09-17T08:34:13.438Z,78.40
2022-09-17T08:36:51.694Z,77.50
2022-09-17T08:39:33.980Z,82.60
2022-09-17T08:42:24.667Z,80.90
2022-09-17T08:45:03.827Z,73.40
2022-09-17T08:47:43.355Z,76.20
2022-09-17T08:50:39.448Z,76.90
2022-09-17T08:53:35.522Z,72.00
2022-09-17T08:56:13.664Z,71.50
2022-09-17T08:59:10.331Z,73.50
2022-09-17T09:01:53.799Z,72.30
2022-09-17T09:04:55.552Z,69.20
2022-09-17T09:07:43.491Z,66.50
2022-09-17T09:10:31.730Z,69.00
2022-09-17T09:13:01.172Z,64.50
2022-09-17T09:15:42.649Z,67.40
2022-09-17T09:18:38.179Z,63.90
2022-09-17T09:21:27.014Z,63.20
2022-09-17T09:24:05.753Z,63.70
2022-09-17T09:27:14.344Z,62.90
2022-09-17T09:30:04.523Z,63.00
2022-09-17T09:32:37.980Z,62.90
2022-09-17T09:35:34.332Z,64.30
2022-09-17T09:38:20.468Z,62.60
2022-09-17T09:41:24.230Z,62.40
2022-09-17T09:44:08.573Z,60.30
2022-09-17T09:47:04.912Z,62.30
2022-09-17T09:49:53.769Z,59.60
2022-09-17T09:52:43.231Z,58.80
2022-09-17T09:55:30.221Z,59.90
2022-09-17T09:58:22.995Z,61.10
2022-09-17T10:00:51.617Z,60.90
2022-09-17T10:03:53.739Z,61.10
2022-09-17T10:06:29.314Z,60.10
2022-09-17T10:08:57.760Z,58.60
2022-09-17T10:11:28.184Z,57.20
2022-09-17T10:14:28.120Z,58.40
2022-09-17T10:17:19.011Z,56.80
2022-09-17T10:20:12.789Z,56.10
2022-09-17T10:22:46.560Z,56.20
2022-09-17T10:25:34.920Z,57.70
2022-09-17T10:28:12.307Z,55.40
2022-09-17T10:30:57.280Z,57.10
2022-09-17T10:33:36.997Z,54.50
2022-09-17T10:36:16.215Z,55.70
2022-09-17T10:38:58.819Z,55.40
2022-09-17T10:41:29.811Z,55.20
2022-09-17T10:44:17.924Z,55.70
2022-09-17T10:46:58.947Z,54.40
2022-09-17T10:49:49.361Z,55.00
2022-09-17T10:52:31.885Z,54.30
2022-09-17T10:55:21.305Z,54.70
2022-09-17T10:58:02.160Z,53.80
2022-09-17T11:01:05.621Z,54.80
2022-09-17T11:04:04.721Z,53.30
2022-09-17T11:06:35.362Z,52.60
2022-09-17T11:09:29.112Z,54.30
2022-09-17T11:12:23.282Z,54.30
2022-09-17T11:15:59.625Z,53.50
2022-09-17T11:18:34.572Z,52.70
2022-09-17T11:21:14.037Z,53.80
2022-09-17T11:24:07.843Z,53.80
2022-09-17T11:26:57.511Z,51.50
2022-09-17T11:29:40.206Z,51.00
2022-09-17T11:32:20.075Z,52.30
2022-09-17T11:35:32.722Z,52.00
2022-09-17T11:38:27.661Z,51.80
2022-09-17T11:41:14.760Z,51.40
2022-09-17T11:43:59.933Z,51.60
2022-09-17T11:47:00.070Z,52.00
2022-09-17T11:49:33.597Z,51.20
2022-09-17T11:52:30.288Z,50.70
2022-09-17T11:55:20.699Z,50.80
2022-09-17T11:57:52.028Z,51.50
2022-09-17T12:00:26.055Z,51.00
2022-09-17T12:03:11.711Z,51.10
2022-09-17T12:05:45.128Z,50.80
2022-09-17T12:08:18.542Z,51.30
2022-09-17T12:10:57.134Z,50.50
2022-09-17T12:13:39.659Z,50.70
2022-09-17T12:16:12.391Z,50.90
2022-09-17T12:19:16.870Z,49.70
2022-09-17T12:22:10.640Z,49.80
2022-09-17T12:24:41.629Z,49.80
2022-09-17T12:27:43.493Z,49.60
2022-09-17T12:30:13.052Z,49.00
2022-09-17T12:33:18.307Z,49.70
2022-09-17T12:36:28.827Z,48.80
2022-09-17T12:39:30.564Z,47.90
2022-09-17T12:42:59.785Z,48.30
2022-09-17T12:45:40.429Z,47.30
2022-09-17T12:48:17.545Z,48.50
2022-09-17T12:51:14.570Z,47.70
2022-09-17T12:53:51.167Z,48.20
2022-09-17T12:56:48.495Z,48.80
2022-09-17T12:59:20.451Z,49.00
2022-09-17T13:01:55.450Z,49.40
2022-09-17T13:04:49.809Z,49.70
2022-09-17T13:07:34.605Z,50.40
2022-09-17T13:10:37.550Z,50.30
2022-09-17T13:13:11.098Z,51.20
2022-09-17T13:15:57.093Z,50.60
2022-09-17T13:18:41.703Z,51.50
2022-09-17T13:21:32.372Z,52.90
2022-09-17T13:24:00.532Z,52.90
2022-09-17T13:26:37.929Z,52.80
2022-09-17T13:29:10.260Z,53.00
2022-09-17T13:31:44.707Z,52.90
2022-09-17T13:34:25.807Z,52.70
2022-09-17T13:37:00.503Z,54.30
2022-09-17T13:39:41.387Z,53.40
2022-09-17T13:42:21.314Z,54.40
2022-09-17T13:45:16.260Z,54.80
2022-09-17T13:47:55.959Z,55.60
2022-09-17T13:50:43.772Z,54.50
2022-09-17T13:53:30.601Z,54.80
2022-09-17T13:56:01.289Z,55.00
2022-09-17T13:58:36.594Z,54.90
2022-09-17T14:01:14.900Z,55.10
2022-09-17T14:03:59.231Z,54.90
2022-09-17T14:06:30.023Z,55.20
2022-09-17T14:09:12.779Z,55.10
2022-09-17T14:11:43.851Z,55.80
2022-09-17T14:14:17.198Z,55.20
2022-09-17T14:16:55.259Z,56.20
2022-09-17T14:19:37.073Z,56.30
2022-09-17T14:22:17.603Z,56.20
2022-09-17T14:24:53.985Z,56.00
2022-09-17T14:27:21.823Z,56.10
2022-09-17T14:30:04.594Z,56.40
2022-09-17T14:32:59.948Z,56.50
2022-09-17T14:35:48.015Z,56.40
2022-09-17T14:38:20.416Z,56.80
2022-09-17T14:41:01.499Z,56.60
2022-09-17T14:43:39.708Z,56.50
2022-09-17T14:46:13.798Z,56.40
2022-09-17T14:48:41.659Z,56.60
2022-09-17T14:51:18.526Z,56.50
2022-09-17T14:54:06.899Z,57.60
2022-09-17T14:56:54.861Z,56.90
2022-09-17T14:59:55.753Z,56.70
2022-09-17T15:02:34.170Z,56.80
2022-09-17T15:05:36.413Z,56.50
2022-09-17T15:08:11.344Z,57.10
2022-09-17T15:10:49.027Z,56.70
2022-09-17T15:13:41.987Z,56.90
2022-09-17T15:16:19.785Z,56.90
2022-09-17T15:18:54.375Z,56.90
2022-09-17T15:21:31.371Z,56.70
2022-09-17T15:24:09.182Z,56.60
2022-09-17T15:26:41.163Z,56.60
2022-09-17T15:29:13.003Z,56.60
2022-09-17T15:31:41.380Z,56.50
2022-09-17T15:34:17.741Z,56.60
2022-09-17T15:37:27.716Z,56.80
2022-09-17T15:39:59.281Z,57.60
2022-09-17T15:42:30.272Z,57.20
2022-09-17T15:45:30.675Z,57.20
2022-09-17T15:48:01.710Z,57.00
2022-09-17T15:50:35.358Z,56.90
2022-09-17T15:53:14.703Z,56.80
2022-09-17T15:55:48.386Z,57.00
2022-09-17T15:58:28.440Z,57.10
2022-09-17T16:01:38.418Z,57.40
2022-09-17T16:04:21.008Z,57.60
2022-09-17T16:07:02.734Z,57.50
2022-09-17T16:09:36.659Z,57.70
2022-09-17T16:12:04.601Z,57.60
2022-09-17T16:14:36.581Z,57.30
2022-09-17T16:17:25.813Z,57.20
2022-09-17T16:19:56.827Z,57.80
2022-09-17T16:22:26.337Z,57.40
2022-09-17T16:24:53.973Z,57.50
2022-09-17T16:27:30.560Z,57.60
2022-09-17T16:30:13.414Z,57.70
2022-09-17T16:32:41.078Z,57.70
2022-09-17T16:35:23.168Z,57.60
2022-09-17T16:37:59.650Z,57.60
2022-09-17T16:40:31.738Z,57.60
2022-09-17T16:43:03.536Z,57.60
2022-09-17T16:45:40.765Z,57.70
2022-09-17T16:48:09.348Z,58.20
2022-09-17T16:50:45.191Z,58.00
2022-09-17T16:53:13.276Z,58.20
2022-09-17T16:55:45.540Z,58.00
2022-09-17T16:58:14.374Z,58.10
2022-09-17T17:00:45.428Z,58.20
2022-09-17T17:03:14.627Z,58.10
2022-09-17T17:05:45.628Z,58.20
2022-09-17T17:08:14.806Z,58.30
2022-09-17T17:10:42.392Z,58.50
2022-09-17T17:13:10.161Z,58.70
2022-09-17T17:15:41.115Z,58.90
2022-09-17T17:18:08.860Z,59.00
2022-09-17T17:20:45.186Z,59.20
2022-09-17T17:23:13.681Z,59.20
2022-09-17T17:25:43.908Z,59.40
2022-09-17T17:28:11.759Z,59.40
2022-09-17T17:30:39.686Z,59.50
2022-09-17T17:33:07.420Z,59.50
2022-09-17T17:35:46.273Z,59.90
2022-09-17T17:38:14.001Z,59.70
2022-09-17T17:40:41.741Z,59.70
2022-09-17T17:43:12.724Z,59.90
2022-09-17T17:45:40.913Z,60.20
2022-09-17T17:48:11.465Z,60.40
2022-09-17T17:50:41.320Z,60.60
2022-09-17T17:53:09.170Z,60.90
2022-09-17T17:55:39.526Z,61.10
2022-09-17T17:58:07.282Z,61.40
2022-09-17T18:00:36.760Z,61.50
2022-09-17T18:03:04.727Z,61.80
2022-09-17T18:05:35.828Z,62.00
2022-09-17T18:08:09.433Z,62.50
2022-09-17T18:10:37.406Z,62.70
2022-09-17T18:13:06.302Z,63.40
2022-09-17T18:15:35.213Z,63.20
2022-09-17T18:18:06.629Z,63.40
2022-09-17T18:20:42.952Z,63.70
2022-09-17T18:23:13.568Z,63.90
2022-09-17T18:25:41.388Z,64.30
2022-09-17T18:28:11.837Z,65.60
2022-09-17T18:30:40.015Z,64.20
2022-09-17T18:33:14.564Z,64.80
2022-09-17T18:35:47.490Z,65.40
2022-09-17T18:38:16.441Z,65.80
2022-09-17T18:40:48.019Z,66.20
2022-09-17T18:43:17.657Z,66.60
2022-09-17T18:46:08.431Z,67.00
2022-09-17T18:48:36.791Z,67.50
2022-09-17T18:51:07.639Z,67.60
2022-09-17T18:53:44.278Z,67.90
2022-09-17T18:56:23.185Z,70.00
2022-09-17T18:59:07.973Z,68.40
2022-09-17T19:01:36.597Z,68.20
2022-09-17T19:04:07.931Z,68.90
2022-09-17T19:06:36.210Z,69.40
2022-09-17T19:09:05.175Z,69.80
2022-09-17T19:11:36.245Z,70.10
2022-09-17T19:14:04.293Z,70.50
2022-09-17T19:16:32.707Z,70.90
2022-09-17T19:19:03.766Z,71.30
2022-09-17T19:21:38.962Z,71.70
2022-09-17T19:24:07.387Z,71.60
2022-09-17T19:26:35.203Z,71.80
2022-09-17T19:29:03.055Z,72.10
2022-09-17T19:31:30.801Z,72.30
2022-09-17T19:34:01.470Z,72.70
2022-09-17T19:36:29.021Z,73.00
2022-09-17T19:39:02.524Z,74.70
2022-09-17T19:41:36.229Z,73.40
2022-09-17T19:44:06.762Z,73.30
2022-09-17T19:46:34.490Z,73.70
2022-09-17T19:49:02.436Z,74.00
2022-09-17T19:51:37.706Z,74.00
2022-09-17T19:54:07.092Z,74.50
2022-09-17T19:56:34.744Z,74.60
2022-09-17T19:59:02.856Z,74.70
2022-09-17T20:01:33.616Z,75.10
2022-09-17T20:04:01.308Z,75.40
2022-09-17T20:06:32.856Z,77.90
2022-09-17T20:09:01.890Z,75.50
2022-09-17T20:11:29.535Z,75.80
2022-09-17T20:13:58.907Z,76.20
2022-09-17T20:16:27.334Z,76.50
2022-09-17T20:18:55.615Z,76.80
2022-09-17T20:21:30.059Z,77.20
2022-09-17T20:23:58.454Z,77.50
2022-09-17T20:26:28.417Z,77.70
2022-09-17T20:28:57.355Z,78.00
2022-09-17T20:31:30.556Z,80.90
2022-09-17T20:34:02.343Z,78.00
2022-09-17T20:36:36.385Z,78.30
2022-09-17T20:39:16.548Z,78.90
2022-09-17T20:41:53.334Z,79.20
2022-09-17T20:44:21.673Z,79.50
2022-09-17T20:46:53.796Z,79.70
2022-09-17T20:49:21.884Z,80.50
2022-09-17T20:51:54.320Z,80.30
2022-09-17T20:54:22.145Z,80.50
2022-09-17T20:56:49.924Z,80.80
2022-09-17T20:59:25.035Z,81.00
2022-09-17T21:01:53.769Z,81.30
2022-09-17T21:04:24.635Z,81.60
2022-09-17T21:06:56.095Z,82.10
2022-09-17T21:09:23.849Z,82.30
2022-09-17T21:11:56.301Z,82.60
2022-09-17T21:14:27.061Z,82.90
2022-09-17T21:16:54.944Z,83.20
2022-09-17T21:19:29.424Z,85.70
2022-09-17T21:21:57.835Z,83.30
2022-09-17T21:24:25.512Z,83.60
2022-09-17T21:27:01.596Z,84.00
2022-09-17T21:29:30.201Z,84.40
2022-09-17T21:31:57.836Z,84.80
2022-09-17T21:34:28.234Z,85.30
2022-09-17T21:36:56.850Z,85.50
2022-09-17T21:39:25.608Z,85.70
2022-09-17T21:41:55.717Z,86.00
2022-09-17T21:44:25.590Z,86.00
2022-09-17T21:46:57.530Z,86.30
2022-09-17T21:49:33.014Z,86.60
2022-09-17T21:52:03.463Z,86.60
2022-09-17T21:54:31.140Z,86.90
2022-09-17T21:57:02.602Z,87.40
2022-09-17T21:59:30.691Z,87.70
2022-09-17T22:01:59.337Z,87.70
2022-09-17T22:04:27.180Z,87.60
2022-09-17T22:06:59.235Z,88.10
2022-09-17T22:09:35.822Z,87.90
2022-09-17T22:12:07.685Z,88.40
2022-09-17T22:14:48.106Z,88.80
2022-09-17T22:17:17.191Z,89.20
2022-09-17T22:19:53.619Z,89.60
2022-09-17T22:22:23.879Z,89.30
2022-09-17T22:25:02.966Z,89.40
2022-09-17T22:27:33.334Z,89.70
2022-09-17T22:30:04.896Z,89.60
2022-09-17T22:32:34.046Z,89.90
2022-09-17T22:35:08.083Z,90.10
2022-09-17T22:37:35.757Z,90.30
2022-09-17T22:40:06.125Z,90.50
2022-09-17T22:42:33.823Z,90.50
2022-09-17T22:47:56.737Z,90.90
2022-09-17T22:50:27.652Z,91.00
2022-09-17T22:52:58.272Z,91.00
2022-09-17T22:55:25.879Z,91.10
2022-09-17T22:57:57.893Z,91.00
2022-09-17T23:00:29.675Z,91.00
2022-09-17T23:02:57.539Z,91.10
2022-09-17T23:05:31.244Z,91.30
2022-09-17T23:07:59.206Z,91.30
2022-09-17T23:10:28.193Z,91.40
2022-09-17T23:12:55.937Z,91.40
2022-09-17T23:15:29.402Z,91.50
2022-09-17T23:17:57.429Z,91.70
2022-09-17T23:20:28.491Z,91.80
2022-09-17T23:23:04.138Z,91.90
2022-09-17T23:25:34.651Z,91.90
2022-09-17T23:28:08.564Z,92.00
2022-09-17T23:30:41.673Z,92.00
2022-09-17T23:33:09.647Z,92.30
2022-09-17T23:35:43.436Z,92.20
2022-09-17T23:38:11.423Z,92.20
2022-09-17T23:40:49.582Z,92.30
2022-09-17T23:43:18.722Z,92.40
2022-09-17T23:45:56.122Z,92.30
2022-09-17T23:48:24.597Z,92.30
2022-09-17T23:50:55.293Z,92.30
2022-09-17T23:53:22.932Z,92.40
2022-09-17T23:55:51.131Z,93.30
2022-09-17T23:58:22.374Z,92.50
